createdAt,value
2017-04-20T00:00:20.434Z,61.24
2017-04-20T00:01:01.024Z,61.14
2017-04-20T00:01:41.612Z,61.14
2017-04-20T00:02:22.209Z,61.14
2017-04-20T00:03:02.800Z,61.24
2017-04-20T00:03:43.396Z,60.57
2017-04-20T00:04:23.998Z,60.57
2017-04-20T00:05:04.607Z,61.14
2017-04-20T00:05:45.201Z,60.57
2017-04-20T00:06:25.801Z,60.76
2017-04-20T00:07:06.422Z,61.24
2017-04-20T00:07:47.034Z,60.67
2017-04-20T00:08:27.616Z,61.33
2017-04-20T00:09:08.212Z,61.05
2017-04-20T00:09:48.802Z,61.05
2017-04-20T00:10:29.397Z,61.33
2017-04-20T00:11:09.969Z,61.24
2017-04-20T00:11:50.557Z,61.24
2017-04-20T00:12:31.155Z,61.33
2017-04-20T00:13:11.736Z,61.24
2017-04-20T00:13:52.326Z,61.05
2017-04-20T00:14:32.987Z,61.05
2017-04-20T00:15:13.526Z,60.86
2017-04-20T00:15:54.098Z,60.76
2017-04-20T00:16:34.690Z,60.47
2017-04-20T00:17:15.263Z,60.67
2017-04-20T00:17:55.861Z,60.76
2017-04-20T00:18:36.454Z,60.67
2017-04-20T00:19:20.446Z,61.33
2017-04-20T00:20:01.030Z,61.05
2017-04-20T00:20:41.682Z,61.05
2017-04-20T00:21:22.349Z,61.14
2017-04-20T00:22:02.878Z,61.05
2017-04-20T00:22:43.468Z,61.24
2017-04-20T00:23:24.034Z,61.14
2017-04-20T00:24:04.631Z,61.14
2017-04-20T00:24:45.179Z,60.95
2017-04-20T00:25:25.771Z,61.24
2017-04-20T00:26:06.437Z,61.21
2017-04-20T00:26:47.037Z,61.3
2017-04-20T00:27:27.596Z,61.61
2017-04-20T00:28:08.186Z,61.14
2017-04-20T00:28:48.936Z,61.02
2017-04-20T00:29:29.505Z,61.24
2017-04-20T00:30:10.097Z,61.21
2017-04-20T00:30:50.672Z,61.05
2017-04-20T00:31:31.240Z,61.11
2017-04-20T00:32:11.897Z,61.11
2017-04-20T00:32:52.490Z,60.67
2017-04-20T00:33:33.110Z,61.11
2017-04-20T00:34:13.653Z,60.92
2017-04-20T00:34:54.229Z,61.11
2017-04-20T00:35:34.822Z,61.49
2017-04-20T00:36:15.455Z,61.02
2017-04-20T00:36:56.060Z,61.11
2017-04-20T00:37:36.659Z,61.3
2017-04-20T00:38:17.241Z,61.68
2017-04-20T00:38:57.823Z,61.68
2017-04-20T00:39:38.408Z,61.58
2017-04-20T00:40:19.000Z,61.49
2017-04-20T00:40:59.588Z,61.68
2017-04-20T00:41:40.144Z,61.68
2017-04-20T00:42:20.759Z,61.77
2017-04-20T00:43:01.341Z,61.68
2017-04-20T00:43:41.913Z,61.77
2017-04-20T00:44:22.575Z,61.58
2017-04-20T00:45:03.198Z,61.58
2017-04-20T00:45:43.834Z,61.87
2017-04-20T00:46:24.433Z,61.77
2017-04-20T00:47:05.001Z,61.96
2017-04-20T00:47:45.580Z,62.15
2017-04-20T00:48:26.192Z,62.05
2017-04-20T00:49:06.782Z,61.96
2017-04-20T00:49:47.419Z,62.15
2017-04-20T00:50:28.068Z,62.05
2017-04-20T00:51:08.621Z,61.96
2017-04-20T00:51:49.207Z,62.34
2017-04-20T00:52:29.792Z,62.24
2017-04-20T00:53:10.375Z,62.62
2017-04-20T00:53:51.031Z,62.34
2017-04-20T00:54:31.616Z,62.53
2017-04-20T00:55:12.202Z,62.43
2017-04-20T00:55:52.802Z,62.82
2017-04-20T00:56:33.402Z,61.96
2017-04-20T00:57:13.984Z,62.72
2017-04-20T00:57:54.573Z,62.62
2017-04-20T00:58:35.194Z,62.05
2017-04-20T00:59:15.801Z,62.72
2017-04-20T00:59:56.393Z,62.82
2017-04-20T01:00:37.019Z,63.2
2017-04-20T01:01:17.568Z,62.72
2017-04-20T01:01:58.184Z,62.62
2017-04-20T01:02:38.761Z,63.29
2017-04-20T01:03:19.341Z,63.57
2017-04-20T01:03:59.927Z,63.1
2017-04-20T01:04:40.540Z,63.39
2017-04-20T01:05:21.161Z,63.2
2017-04-20T01:06:01.789Z,63.2
2017-04-20T01:06:42.406Z,62.62
2017-04-20T01:07:22.996Z,62.53
2017-04-20T01:08:03.576Z,62.72
2017-04-20T01:08:44.194Z,62.62
2017-04-20T01:09:24.776Z,62.53
2017-04-20T01:10:05.349Z,62.34
2017-04-20T01:10:45.934Z,62.53
2017-04-20T01:11:26.502Z,63.1
2017-04-20T01:12:07.079Z,62.24
2017-04-20T01:12:47.669Z,62.72
2017-04-20T01:13:28.288Z,62.72
2017-04-20T01:14:08.892Z,62.43
2017-04-20T01:14:49.453Z,62.72
2017-04-20T01:15:30.033Z,62.72
2017-04-20T01:16:10.612Z,62.82
2017-04-20T01:16:51.230Z,62.15
2017-04-20T01:17:31.820Z,62.05
2017-04-20T01:18:12.413Z,62.05
2017-04-20T01:18:53.003Z,62.15
2017-04-20T01:19:33.663Z,62.15
2017-04-20T01:20:14.249Z,62.43
2017-04-20T01:20:54.837Z,62.62
2017-04-20T01:21:35.471Z,62.53
2017-04-20T01:22:16.054Z,62.62
2017-04-20T01:22:56.638Z,62.91
2017-04-20T01:23:37.214Z,62.53
2017-04-20T01:24:17.790Z,62.34
2017-04-20T01:24:58.364Z,62.53
2017-04-20T01:25:38.919Z,62.34
2017-04-20T01:26:19.485Z,62.91
2017-04-20T01:27:00.059Z,62.91
2017-04-20T01:27:40.627Z,62.43
2017-04-20T01:28:21.211Z,62.43
2017-04-20T01:29:01.816Z,62.91
2017-04-20T01:29:42.421Z,62.82
2017-04-20T01:30:23.009Z,62.53
2017-04-20T01:31:03.575Z,62.82
2017-04-20T01:31:44.162Z,62.34
2017-04-20T01:32:24.725Z,62.53
2017-04-20T01:33:05.310Z,62.72
2017-04-20T01:33:45.890Z,63.01
2017-04-20T01:34:26.560Z,62.62
2017-04-20T01:35:07.137Z,63.01
2017-04-20T01:35:47.698Z,62.91
2017-04-20T01:36:28.284Z,63.2
2017-04-20T01:37:08.856Z,63.29
2017-04-20T01:37:49.454Z,63.2
2017-04-20T01:38:30.059Z,63.39
2017-04-20T01:39:10.641Z,63.29
2017-04-20T01:39:51.294Z,63.29
2017-04-20T01:40:31.902Z,63.48
2017-04-20T01:41:12.483Z,63.39
2017-04-20T01:41:53.052Z,63.39
2017-04-20T01:42:33.633Z,63.48
2017-04-20T01:43:14.260Z,63.29
2017-04-20T01:43:54.839Z,63.29
2017-04-20T01:44:35.402Z,63.39
2017-04-20T01:45:15.981Z,63.39
2017-04-20T01:45:56.578Z,63.48
2017-04-20T01:46:37.179Z,63.48
2017-04-20T01:47:17.795Z,63.48
2017-04-20T01:47:58.403Z,63.2
2017-04-20T01:48:39.005Z,63.67
2017-04-20T01:49:19.569Z,63.39
2017-04-20T01:50:00.143Z,63.67
2017-04-20T01:50:40.700Z,63.67
2017-04-20T01:51:21.296Z,63.48
2017-04-20T01:52:01.913Z,63.95
2017-04-20T01:52:42.529Z,63.48
2017-04-20T01:53:23.107Z,63.67
2017-04-20T01:54:03.675Z,63.76
2017-04-20T01:54:44.245Z,63.48
2017-04-20T01:55:24.805Z,63.76
2017-04-20T01:56:05.383Z,63.67
2017-04-20T01:56:45.974Z,63.67
2017-04-20T01:57:26.555Z,63.76
2017-04-20T01:58:07.144Z,63.57
2017-04-20T01:58:47.732Z,63.57
2017-04-20T01:59:28.300Z,63.76
2017-04-20T02:00:08.874Z,63.48
2017-04-20T02:00:49.464Z,63.67
2017-04-20T02:01:30.057Z,63.76
2017-04-20T02:02:10.621Z,63.67
2017-04-20T02:02:51.186Z,63.85
2017-04-20T02:03:31.752Z,63.57
2017-04-20T02:04:12.334Z,63.29
2017-04-20T02:04:52.902Z,63.48
2017-04-20T02:05:33.476Z,63.57
2017-04-20T02:06:14.048Z,63.48
2017-04-20T02:06:54.635Z,63.76
2017-04-20T02:07:35.205Z,63.67
2017-04-20T02:08:15.780Z,63.76
2017-04-20T02:08:56.346Z,63.76
2017-04-20T02:09:36.932Z,63.76
2017-04-20T02:10:17.496Z,63.67
2017-04-20T02:10:58.064Z,63.85
2017-04-20T02:11:38.640Z,63.85
2017-04-20T02:12:19.216Z,63.76
2017-04-20T02:12:59.779Z,63.57
2017-04-20T02:13:40.372Z,63.67
2017-04-20T02:14:20.943Z,63.76
2017-04-20T02:15:01.554Z,63.76
2017-04-20T02:15:42.145Z,63.57
2017-04-20T02:16:22.720Z,63.67
2017-04-20T02:17:03.284Z,63.76
2017-04-20T02:17:43.851Z,63.76
2017-04-20T02:18:24.437Z,63.67
2017-04-20T02:19:05.020Z,64.04
2017-04-20T02:19:45.602Z,63.67
2017-04-20T02:20:26.161Z,63.76
2017-04-20T02:21:06.746Z,63.76
2017-04-20T02:21:47.305Z,63.67
2017-04-20T02:22:27.873Z,63.67
2017-04-20T02:23:08.462Z,63.48
2017-04-20T02:23:49.051Z,63.67
2017-04-20T02:24:29.640Z,63.76
2017-04-20T02:25:10.291Z,63.95
2017-04-20T02:25:50.888Z,63.76
2017-04-20T02:26:31.456Z,64.14
2017-04-20T02:27:12.073Z,64.14
2017-04-20T02:27:52.651Z,63.67
2017-04-20T02:28:33.301Z,63.57
2017-04-20T02:29:13.857Z,63.67
2017-04-20T02:29:54.423Z,63.76
2017-04-20T02:30:35.002Z,64.33
2017-04-20T02:31:15.573Z,63.67
2017-04-20T02:31:56.149Z,63.85
2017-04-20T02:32:36.721Z,63.76
2017-04-20T02:33:17.280Z,64.14
2017-04-20T02:33:57.851Z,63.76
2017-04-20T02:34:38.451Z,63.76
2017-04-20T02:35:19.093Z,63.76
2017-04-20T02:35:59.646Z,64.42
2017-04-20T02:36:40.224Z,63.76
2017-04-20T02:37:20.822Z,63.95
2017-04-20T02:38:01.386Z,63.57
2017-04-20T02:38:41.954Z,64.04
2017-04-20T02:39:22.524Z,63.76
2017-04-20T02:40:03.104Z,63.76
2017-04-20T02:40:43.683Z,63.85
2017-04-20T02:41:24.252Z,64.23
2017-04-20T02:42:04.824Z,63.85
2017-04-20T02:42:45.410Z,64.04
2017-04-20T02:43:25.984Z,64.04
2017-04-20T02:44:06.558Z,64.33
2017-04-20T02:44:47.130Z,63.95
2017-04-20T02:45:27.695Z,64.14
2017-04-20T02:46:08.276Z,64.14
2017-04-20T02:46:48.855Z,64.14
2017-04-20T02:47:29.422Z,64.23
2017-04-20T02:48:09.981Z,64.33
2017-04-20T02:48:50.547Z,64.04
2017-04-20T02:49:31.121Z,64.14
2017-04-20T02:50:11.703Z,64.14
2017-04-20T02:50:52.296Z,64.04
2017-04-20T02:51:32.875Z,64.11
2017-04-20T02:52:13.420Z,64.04
2017-04-20T02:52:54.030Z,64.01
2017-04-20T02:53:34.617Z,64.04
2017-04-20T02:54:15.268Z,63.95
2017-04-20T02:54:55.846Z,64.2
2017-04-20T02:55:36.416Z,64.23
2017-04-20T02:56:16.999Z,64.01
2017-04-20T02:56:57.596Z,64.14
2017-04-20T02:57:38.153Z,64.11
2017-04-20T02:58:18.725Z,64.14
2017-04-20T02:58:59.299Z,64.04
2017-04-20T02:59:39.875Z,63.95
2017-04-20T03:00:20.473Z,64.3
2017-04-20T03:01:01.059Z,64.23
2017-04-20T03:01:41.648Z,64.2
2017-04-20T03:02:22.218Z,64.33
2017-04-20T03:03:02.800Z,64.01
2017-04-20T03:03:43.397Z,64.01
2017-04-20T03:04:24.003Z,64.14
2017-04-20T03:05:04.576Z,64.11
2017-04-20T03:05:45.159Z,63.92
2017-04-20T03:06:25.729Z,64.11
2017-04-20T03:07:06.353Z,64.33
2017-04-20T03:07:46.948Z,64.3
2017-04-20T03:08:27.606Z,64.11
2017-04-20T03:09:08.224Z,64.3
2017-04-20T03:09:48.826Z,64.23
2017-04-20T03:10:29.429Z,64.04
2017-04-20T03:11:09.998Z,64.2
2017-04-20T03:11:50.569Z,63.82
2017-04-20T03:12:31.145Z,64.11
2017-04-20T03:13:11.720Z,64.14
2017-04-20T03:13:52.309Z,64.14
2017-04-20T03:14:32.905Z,64.3
2017-04-20T03:15:13.551Z,64.33
2017-04-20T03:15:54.150Z,63.73
2017-04-20T03:16:34.715Z,64.2
2017-04-20T03:17:15.303Z,64.04
2017-04-20T03:17:55.896Z,63.95
2017-04-20T03:18:36.505Z,64.04
2017-04-20T03:19:17.092Z,64.33
2017-04-20T03:19:57.719Z,63.64
2017-04-20T03:20:38.299Z,63.67
2017-04-20T03:21:18.893Z,63.76
2017-04-20T03:21:59.486Z,63.76
2017-04-20T03:22:40.068Z,63.45
2017-04-20T03:23:20.696Z,63.67
2017-04-20T03:24:01.273Z,63.92
2017-04-20T03:24:41.829Z,64.39
2017-04-20T03:25:22.448Z,64.11
2017-04-20T03:26:03.028Z,64.3
2017-04-20T03:26:43.598Z,63.92
2017-04-20T03:27:24.195Z,64.39
2017-04-20T03:28:04.764Z,64.77
2017-04-20T03:28:45.343Z,64.58
2017-04-20T03:29:25.995Z,64.58
2017-04-20T03:30:06.583Z,64.39
2017-04-20T03:30:47.203Z,64.49
2017-04-20T03:31:27.838Z,65.06
2017-04-20T03:32:08.424Z,64.58
2017-04-20T03:32:49.076Z,64.87
2017-04-20T03:33:29.673Z,64.87
2017-04-20T03:34:10.213Z,64.58
2017-04-20T03:34:50.804Z,64.58
2017-04-20T03:35:31.364Z,64.77
2017-04-20T03:36:11.944Z,64.96
2017-04-20T03:36:52.517Z,65.34
2017-04-20T03:37:33.139Z,65.25
2017-04-20T03:38:13.746Z,65.25
2017-04-20T03:38:54.312Z,65.63
2017-04-20T03:39:34.917Z,65.81
2017-04-20T03:40:15.501Z,65.63
2017-04-20T03:40:56.081Z,65.53
2017-04-20T03:41:36.670Z,65.15
2017-04-20T03:42:17.265Z,65.06
2017-04-20T03:42:57.853Z,65.53
2017-04-20T03:43:38.404Z,65.72
2017-04-20T03:44:18.986Z,65.15
2017-04-20T03:44:59.572Z,65.34
2017-04-20T03:45:40.150Z,65.34
2017-04-20T03:46:20.722Z,65.63
2017-04-20T03:47:01.352Z,65.53
2017-04-20T03:47:41.933Z,65.63
2017-04-20T03:48:22.529Z,65.63
2017-04-20T03:49:03.102Z,65.63
2017-04-20T03:49:43.727Z,65.44
2017-04-20T03:50:24.298Z,65.44
2017-04-20T03:51:04.882Z,65.72
2017-04-20T03:51:45.461Z,65.25
2017-04-20T03:52:26.103Z,65.53
2017-04-20T03:53:06.696Z,65.72
2017-04-20T03:53:47.313Z,65.63
2017-04-20T03:54:27.887Z,65.63
2017-04-20T03:55:08.490Z,65.81
2017-04-20T03:55:49.117Z,65.81
2017-04-20T03:56:29.695Z,65.63
2017-04-20T03:57:10.296Z,65.53
2017-04-20T03:57:50.901Z,65.81
2017-04-20T03:58:31.518Z,65.63
2017-04-20T03:59:12.088Z,65.25
2017-04-20T03:59:52.655Z,65.34
2017-04-20T04:00:33.270Z,65.63
2017-04-20T04:01:13.853Z,65.72
2017-04-20T04:01:54.437Z,65.34
2017-04-20T04:02:35.032Z,65.72
2017-04-20T04:03:15.657Z,65.53
2017-04-20T04:03:56.223Z,65.53
2017-04-20T04:04:36.820Z,65.34
2017-04-20T04:05:17.433Z,65.53
2017-04-20T04:05:58.035Z,65.72
2017-04-20T04:06:38.616Z,65.72
2017-04-20T04:07:19.216Z,65.63
2017-04-20T04:07:59.813Z,65.63
2017-04-20T04:08:40.406Z,65.44
2017-04-20T04:09:21.024Z,65.15
2017-04-20T04:10:01.596Z,65.25
2017-04-20T04:10:42.181Z,65.25
2017-04-20T04:11:22.767Z,65.25
2017-04-20T04:12:03.345Z,65.53
2017-04-20T04:12:43.947Z,65.25
2017-04-20T04:13:24.519Z,65.53
2017-04-20T04:14:05.098Z,65.34
2017-04-20T04:14:45.708Z,65.72
2017-04-20T04:15:26.295Z,65.34
2017-04-20T04:16:06.891Z,65.63
2017-04-20T04:16:47.504Z,65.34
2017-04-20T04:17:28.096Z,65.34
2017-04-20T04:18:08.695Z,65.25
2017-04-20T04:18:49.306Z,65.34
2017-04-20T04:19:29.944Z,65.53
2017-04-20T04:20:10.536Z,65.81
2017-04-20T04:20:51.164Z,65.34
2017-04-20T04:21:31.786Z,65.25
2017-04-20T04:22:12.449Z,65.44
2017-04-20T04:22:53.021Z,65.25
2017-04-20T04:23:33.625Z,65.25
2017-04-20T04:24:14.204Z,65.25
2017-04-20T04:24:54.791Z,64.96
2017-04-20T04:25:35.449Z,64.96
2017-04-20T04:26:16.044Z,65.06
2017-04-20T04:26:56.607Z,64.58
2017-04-20T04:27:37.236Z,64.39
2017-04-20T04:28:17.831Z,64.49
2017-04-20T04:28:58.429Z,64.68
2017-04-20T04:29:39.016Z,64.77
2017-04-20T04:30:19.631Z,64.77
2017-04-20T04:31:00.226Z,64.01
2017-04-20T04:31:40.820Z,64.2
2017-04-20T04:32:21.436Z,64.3
2017-04-20T04:33:02.085Z,64.11
2017-04-20T04:33:42.766Z,64.3
2017-04-20T04:34:23.348Z,64.3
2017-04-20T04:35:03.949Z,64.11
2017-04-20T04:35:44.567Z,63.92
2017-04-20T04:36:25.170Z,64.2
2017-04-20T04:37:05.751Z,63.73
2017-04-20T04:37:46.341Z,64.3
2017-04-20T04:38:26.934Z,63.82
2017-04-20T04:39:07.517Z,63.64
2017-04-20T04:39:48.109Z,63.64
2017-04-20T04:40:28.686Z,64.2
2017-04-20T04:41:09.275Z,64.3
2017-04-20T04:41:49.909Z,63.82
2017-04-20T04:42:30.478Z,64.2
2017-04-20T04:43:11.056Z,64.11
2017-04-20T04:43:51.636Z,64.11
2017-04-20T04:44:32.223Z,63.85
2017-04-20T04:45:12.813Z,63.92
2017-04-20T04:45:53.400Z,64.04
2017-04-20T04:46:33.994Z,63.73
2017-04-20T04:47:14.582Z,63.67
2017-04-20T04:47:55.168Z,63.48
2017-04-20T04:48:35.812Z,63.45
2017-04-20T04:49:16.422Z,63.67
2017-04-20T04:49:57.017Z,63.95
2017-04-20T04:50:37.598Z,63.54
2017-04-20T04:51:18.182Z,63.67
2017-04-20T04:51:58.822Z,63.29
2017-04-20T04:52:39.466Z,63.26
2017-04-20T04:53:20.032Z,63.16
2017-04-20T04:54:00.618Z,63.73
2017-04-20T04:54:41.173Z,63.48
2017-04-20T04:55:21.865Z,63.48
2017-04-20T04:56:02.374Z,63.76
2017-04-20T04:56:42.988Z,63.57
2017-04-20T04:57:23.600Z,63.2
2017-04-20T04:58:04.189Z,63.01
2017-04-20T04:58:44.766Z,63.2
2017-04-20T04:59:25.356Z,63.39
2017-04-20T05:00:05.958Z,62.91
2017-04-20T05:00:46.543Z,63.29
2017-04-20T05:01:27.154Z,63.29
2017-04-20T05:02:07.791Z,63.57
2017-04-20T05:02:48.369Z,63.01
2017-04-20T05:03:28.997Z,63.01
2017-04-20T05:04:09.569Z,63.01
2017-04-20T05:04:50.135Z,63.29
2017-04-20T05:05:30.721Z,62.91
2017-04-20T05:06:11.382Z,62.91
2017-04-20T05:06:51.954Z,62.62
2017-04-20T05:07:32.589Z,62.62
2017-04-20T05:08:13.218Z,62.91
2017-04-20T05:08:53.820Z,62.72
2017-04-20T05:09:34.397Z,62.91
2017-04-20T05:10:14.967Z,62.72
2017-04-20T05:10:55.752Z,62.82
2017-04-20T05:11:36.337Z,63.01
2017-04-20T05:12:16.917Z,62.82
2017-04-20T05:12:57.487Z,62.43
2017-04-20T05:13:38.102Z,62.82
2017-04-20T05:14:18.682Z,62.43
2017-04-20T05:14:59.284Z,62.53
2017-04-20T05:15:39.854Z,62.72
2017-04-20T05:16:20.439Z,62.72
2017-04-20T05:17:01.014Z,62.72
2017-04-20T05:17:41.660Z,62.72
2017-04-20T05:18:22.239Z,62.53
2017-04-20T05:19:02.856Z,62.62
2017-04-20T05:19:43.438Z,62.82
2017-04-20T05:20:24.066Z,62.82
2017-04-20T05:21:04.662Z,62.24
2017-04-20T05:21:45.354Z,62.24
2017-04-20T05:22:25.874Z,62.15
2017-04-20T05:23:06.464Z,62.24
2017-04-20T05:23:47.053Z,62.34
2017-04-20T05:24:27.680Z,62.24
2017-04-20T05:25:08.268Z,62.43
2017-04-20T05:25:48.844Z,61.96
2017-04-20T05:26:29.430Z,62.15
2017-04-20T05:27:09.978Z,61.96
2017-04-20T05:27:50.688Z,61.87
2017-04-20T05:28:31.251Z,61.96
2017-04-20T05:29:11.826Z,61.77
2017-04-20T05:29:52.432Z,62.24
2017-04-20T05:30:33.019Z,62.82
2017-04-20T05:31:13.645Z,62.53
2017-04-20T05:31:54.409Z,62.05
2017-04-20T05:32:35.055Z,62.05
2017-04-20T05:33:15.660Z,61.58
2017-04-20T05:33:56.258Z,61.77
2017-04-20T05:34:36.830Z,61.68
2017-04-20T05:35:17.429Z,61.77
2017-04-20T05:35:58.011Z,61.77
2017-04-20T05:36:38.583Z,61.58
2017-04-20T05:37:19.212Z,61.58
2017-04-20T05:37:59.782Z,61.21
2017-04-20T05:38:40.402Z,61.58
2017-04-20T05:39:21.037Z,60.54
2017-04-20T05:40:01.618Z,60.86
2017-04-20T05:40:42.189Z,60.86
2017-04-20T05:41:22.757Z,60.64
2017-04-20T05:42:03.375Z,61.21
2017-04-20T05:42:43.943Z,69.01
2017-04-20T05:43:24.540Z,74.41
2017-04-20T05:44:05.126Z,76.87
2017-04-20T05:44:45.711Z,76.63
2017-04-20T05:45:26.468Z,75.49
2017-04-20T05:46:07.073Z,73.54
2017-04-20T05:46:47.684Z,72.21
2017-04-20T05:47:28.272Z,71.01
2017-04-20T05:48:08.852Z,69.68
2017-04-20T05:48:49.493Z,67.31
2017-04-20T05:49:30.088Z,66.11
2017-04-20T05:50:10.647Z,65.35
2017-04-20T05:50:51.265Z,63.83
2017-04-20T05:51:31.819Z,62.81
2017-04-20T05:52:12.427Z,61.68
2017-04-20T05:52:53.028Z,60.25
2017-04-20T05:53:33.709Z,59.11
2017-04-20T05:54:14.300Z,58.25
2017-04-20T05:54:54.912Z,57.52
2017-04-20T05:55:35.493Z,56.48
2017-04-20T05:56:16.111Z,55.24
2017-04-20T05:56:56.696Z,53.91
2017-04-20T05:57:37.258Z,54
2017-04-20T05:58:17.877Z,53.81
2017-04-20T05:58:58.475Z,52.58
2017-04-20T05:59:39.075Z,52.01
2017-04-20T06:00:19.689Z,51.84
2017-04-20T06:01:00.387Z,51.62
2017-04-20T06:01:40.947Z,51.43
2017-04-20T06:02:21.530Z,51.91
2017-04-20T06:03:02.184Z,51.75
2017-04-20T06:03:42.787Z,50.99
2017-04-20T06:04:23.435Z,50.6
2017-04-20T06:05:03.992Z,50.04
2017-04-20T06:05:44.721Z,49.94
2017-04-20T06:06:25.210Z,49.27
2017-04-20T06:07:05.798Z,49.08
2017-04-20T06:07:46.375Z,49.08
2017-04-20T06:08:27.021Z,48.61
2017-04-20T06:09:07.716Z,47.87
2017-04-20T06:09:48.324Z,47.58
2017-04-20T06:10:28.979Z,47.02
2017-04-20T06:11:09.575Z,45.21
2017-04-20T06:11:50.252Z,43.68
2017-04-20T06:12:30.822Z,42.99
2017-04-20T06:13:11.402Z,42.04
2017-04-20T06:13:51.978Z,41.83
2017-04-20T06:14:32.560Z,42.4
2017-04-20T06:15:13.163Z,42.79
2017-04-20T06:15:53.739Z,43.07
2017-04-20T06:16:34.338Z,43.43
2017-04-20T06:17:14.916Z,43.8
2017-04-20T06:17:55.535Z,44.85
2017-04-20T06:18:36.161Z,45.14
2017-04-20T06:19:16.808Z,45.31
2017-04-20T06:19:57.349Z,45.5
2017-04-20T06:20:37.939Z,45.68
2017-04-20T06:21:18.554Z,45.97
2017-04-20T06:21:59.209Z,46.16
2017-04-20T06:22:39.777Z,46.25
2017-04-20T06:23:20.368Z,46.35
2017-04-20T06:24:00.966Z,46.35
2017-04-20T06:24:41.585Z,46.25
2017-04-20T06:25:22.248Z,46.16
2017-04-20T06:26:02.846Z,46.25
2017-04-20T06:26:43.442Z,46.06
2017-04-20T06:27:24.060Z,46.35
2017-04-20T06:28:04.712Z,46.45
2017-04-20T06:28:45.337Z,46.45
2017-04-20T06:29:25.926Z,46.45
2017-04-20T06:30:06.559Z,45.87
2017-04-20T06:30:47.182Z,45.97
2017-04-20T06:31:27.722Z,45.97
2017-04-20T06:32:08.333Z,46.09
2017-04-20T06:32:48.912Z,45.23
2017-04-20T06:33:29.521Z,44
2017-04-20T06:34:10.109Z,43.52
2017-04-20T06:34:50.692Z,42.67
2017-04-20T06:35:31.316Z,42
2017-04-20T06:36:11.933Z,41.81
2017-04-20T06:36:52.507Z,41.43
2017-04-20T06:37:33.138Z,41.07
2017-04-20T06:38:13.718Z,41.26
2017-04-20T06:38:54.313Z,41.26
2017-04-20T06:39:34.922Z,40.59
2017-04-20T06:40:15.580Z,39.65
2017-04-20T06:40:56.197Z,39.55
2017-04-20T06:41:36.886Z,39.65
2017-04-20T06:42:17.470Z,39.55
2017-04-20T06:42:58.089Z,39.36
2017-04-20T06:43:38.707Z,39.65
2017-04-20T06:44:19.332Z,39.74
2017-04-20T06:45:00.014Z,39.45
2017-04-20T06:45:40.567Z,39.07
2017-04-20T06:46:21.214Z,39.28
2017-04-20T06:47:01.792Z,39.19
2017-04-20T06:47:42.399Z,38.81
2017-04-20T06:48:23.032Z,38.34
2017-04-20T06:49:03.600Z,38.14
2017-04-20T06:49:44.195Z,37.48
2017-04-20T06:50:24.829Z,37.38
2017-04-20T06:51:05.441Z,36.26
2017-04-20T06:51:46.055Z,36.16
2017-04-20T06:52:26.716Z,36.33
2017-04-20T06:53:07.327Z,36.62
2017-04-20T06:53:48.142Z,36.53
2017-04-20T06:54:28.739Z,36.72
2017-04-20T06:55:09.361Z,36.55
2017-04-20T06:55:50.766Z,36.74
2017-04-20T06:56:31.576Z,36.93
2017-04-20T06:57:12.195Z,36.45
2017-04-20T06:57:52.821Z,35.69
2017-04-20T06:58:33.441Z,35.5
2017-04-20T06:59:14.058Z,35.6
2017-04-20T06:59:54.648Z,35.21
2017-04-20T07:00:35.253Z,36.07
2017-04-20T07:01:16.237Z,35.6
2017-04-20T07:01:56.859Z,35.69
2017-04-20T07:02:37.424Z,35.78
2017-04-20T07:03:18.081Z,35.31
2017-04-20T07:03:58.671Z,35.21
2017-04-20T07:04:39.276Z,35.21
2017-04-20T07:05:19.897Z,35.13
2017-04-20T07:06:00.493Z,34.74
2017-04-20T07:06:41.131Z,35.02
2017-04-20T07:07:21.704Z,34.47
2017-04-20T07:08:02.292Z,34.38
2017-04-20T07:08:42.903Z,34.66
2017-04-20T07:09:23.499Z,34.85
2017-04-20T07:10:04.124Z,34.94
2017-04-20T07:10:44.894Z,34.75
2017-04-20T07:11:25.399Z,34.85
2017-04-20T07:12:06.023Z,34.94
2017-04-20T07:12:46.610Z,34.94
2017-04-20T07:13:27.184Z,34.38
2017-04-20T07:14:07.778Z,34.47
2017-04-20T07:14:48.350Z,34.48
2017-04-20T07:15:28.934Z,34.2
2017-04-20T07:16:09.533Z,33.53
2017-04-20T07:16:50.123Z,33.25
2017-04-20T07:17:30.722Z,33.25
2017-04-20T07:18:11.322Z,33.25
2017-04-20T07:18:51.898Z,33.25
2017-04-20T07:19:32.513Z,33.34
2017-04-20T07:20:13.119Z,33.25
2017-04-20T07:20:53.833Z,32.77
2017-04-20T07:21:34.413Z,32.58
2017-04-20T07:22:15.019Z,31.92
2017-04-20T07:22:55.616Z,32.09
2017-04-20T07:23:36.227Z,32.37
2017-04-20T07:24:16.855Z,33.04
2017-04-20T07:24:57.430Z,33.25
2017-04-20T07:25:38.019Z,33.25
2017-04-20T07:26:18.654Z,32.87
2017-04-20T07:26:59.245Z,32.29
2017-04-20T07:27:39.833Z,33.15
2017-04-20T07:28:20.452Z,33.44
2017-04-20T07:29:01.041Z,33.72
2017-04-20T07:29:41.634Z,33.44
2017-04-20T07:30:22.236Z,33.44
2017-04-20T07:31:02.900Z,32.39
2017-04-20T07:31:43.557Z,32.58
2017-04-20T07:32:24.130Z,32.21
2017-04-20T07:33:04.823Z,32.03
2017-04-20T07:33:45.355Z,31.26
2017-04-20T07:34:25.960Z,31.07
2017-04-20T07:35:06.553Z,31.93
2017-04-20T07:35:47.169Z,31.93
2017-04-20T07:36:27.773Z,31.16
2017-04-20T07:37:08.401Z,30.98
2017-04-20T07:37:49.038Z,31.07
2017-04-20T07:38:29.627Z,31.26
2017-04-20T07:39:10.236Z,31.84
2017-04-20T07:39:50.824Z,32.03
2017-04-20T07:40:31.410Z,31.36
2017-04-20T07:41:12.007Z,31.07
2017-04-20T07:41:52.598Z,31.16
2017-04-20T07:42:33.278Z,31.36
2017-04-20T07:43:13.847Z,31.93
2017-04-20T07:43:54.428Z,31.36
2017-04-20T07:44:35.091Z,31.45
2017-04-20T07:45:15.692Z,31.55
2017-04-20T07:45:56.297Z,31.36
2017-04-20T07:46:37.244Z,30.98
2017-04-20T07:47:17.851Z,30.61
2017-04-20T07:47:58.449Z,30.02
2017-04-20T07:48:39.046Z,30.13
2017-04-20T07:49:19.637Z,30.6
2017-04-20T07:50:00.297Z,30.5
2017-04-20T07:50:40.903Z,30.69
2017-04-20T07:51:21.514Z,30.31
2017-04-20T07:52:02.109Z,30.21
2017-04-20T07:52:42.731Z,29.93
2017-04-20T07:53:23.337Z,30.21
2017-04-20T07:54:03.945Z,30.02
2017-04-20T07:54:44.553Z,30.5
2017-04-20T07:55:25.187Z,30.12
2017-04-20T07:56:05.804Z,30.98
2017-04-20T07:56:46.407Z,30.12
2017-04-20T07:57:27.002Z,30.69
2017-04-20T07:58:07.617Z,30.6
2017-04-20T07:58:48.246Z,30.79
2017-04-20T07:59:28.830Z,31.26
2017-04-20T08:00:09.429Z,30.88
2017-04-20T08:00:50.066Z,30.79
2017-04-20T08:01:30.719Z,30.88
2017-04-20T08:02:11.311Z,30.88
2017-04-20T08:02:51.887Z,30.88
2017-04-20T08:03:32.531Z,31.55
2017-04-20T08:04:13.150Z,31.84
2017-04-20T08:04:53.801Z,31.84
2017-04-20T08:05:34.456Z,31.37
2017-04-20T08:06:15.043Z,31.07
2017-04-20T08:06:55.629Z,30.02
2017-04-20T08:07:36.245Z,30.69
2017-04-20T08:08:16.872Z,30.21
2017-04-20T08:08:57.722Z,29.93
2017-04-20T08:09:38.321Z,30.69
2017-04-20T08:10:18.922Z,30.88
2017-04-20T08:10:59.548Z,31.36
2017-04-20T08:11:40.174Z,31.93
2017-04-20T08:12:20.774Z,31.36
2017-04-20T08:13:01.355Z,31.36
2017-04-20T08:13:41.945Z,31.64
2017-04-20T08:14:22.544Z,31.64
2017-04-20T08:15:03.137Z,31.45
2017-04-20T08:15:43.736Z,31.45
2017-04-20T08:16:24.357Z,31.07
2017-04-20T08:17:04.923Z,30.12
2017-04-20T08:17:45.509Z,30.88
2017-04-20T08:18:26.141Z,31.07
2017-04-20T08:19:06.734Z,31.36
2017-04-20T08:19:47.750Z,31.74
2017-04-20T08:20:28.377Z,32.04
2017-04-20T08:21:09.016Z,32.4
2017-04-20T08:21:49.603Z,32.61
2017-04-20T08:22:30.222Z,31.95
2017-04-20T08:23:10.873Z,32.04
2017-04-20T08:23:51.476Z,32.61
2017-04-20T08:24:32.073Z,32.42
2017-04-20T08:25:12.676Z,32.81
2017-04-20T08:25:53.266Z,32.81
2017-04-20T08:26:33.848Z,32.9
2017-04-20T08:27:14.489Z,32.61
2017-04-20T08:27:55.091Z,31.85
2017-04-20T08:28:35.721Z,31.09
2017-04-20T08:29:16.300Z,30.32
2017-04-20T08:29:56.943Z,29.94
2017-04-20T08:30:37.508Z,29.94
2017-04-20T08:31:18.102Z,29.94
2017-04-20T08:31:58.724Z,30.13
2017-04-20T08:32:39.401Z,30.42
2017-04-20T08:33:20.060Z,30.13
2017-04-20T08:34:00.633Z,30.04
2017-04-20T08:34:41.263Z,29.37
2017-04-20T08:35:21.882Z,30.23
2017-04-20T08:36:02.611Z,30.9
2017-04-20T08:36:43.208Z,30.99
2017-04-20T08:37:23.809Z,30.32
2017-04-20T08:38:04.511Z,31.18
2017-04-20T08:38:45.067Z,31.28
2017-04-20T08:39:25.644Z,31.28
2017-04-20T08:40:06.267Z,31.47
2017-04-20T08:40:46.864Z,31.85
2017-04-20T08:41:27.458Z,31.95
2017-04-20T08:42:08.065Z,31.95
2017-04-20T08:42:48.691Z,32.04
2017-04-20T08:43:29.387Z,31.47
2017-04-20T08:44:09.990Z,31.28